Time;durP1;ratioP1;P1;durP2;ratioP2;P2;SDS_P1;SDS_P2;PMS_P1;PMS_P2;Temp;Humidity;BMP_temperature;BMP_pressure;BME280_temperature;BME280_humidity;BME280_pressure;Samples;Min_cycle;Max_cycle;Signal;HPM_P1;HPM_P2
2023/04/14 00:02:00;;;;;;;1.87;0.70;;;;;;;;;;5101349;27;89208;-61
2023/04/14 00:04:28;;;;;;;1.17;0.80;;;;;;;;;;5117397;27;87966;-60
2023/04/14 00:06:57;;;;;;;1.53;0.53;;;;;;;;;;5110011;27;88120;-61
2023/04/14 00:09:27;;;;;;;2.50;1.10;;;;;;;;;;5093627;27;87120;-60
2023/04/14 00:11:56;;;;;;;0.97;0.50;;;;;;;;;;5107472;27;89160;-60
2023/04/14 00:14:24;;;;;;;1.10;1.00;;;;;;;;;;5110844;27;88813;-60
2023/04/14 00:16:52;;;;;;;0.50;0.50;;;;;;;;;;5096226;27;87608;-60
2023/04/14 00:19:21;;;;;;;0.87;0.83;;;;;;;;;;5097890;27;87065;-60
2023/04/14 00:21:49;;;;;;;2.53;0.87;;;;;;;;;;5100510;27;89277;-62
2023/04/14 00:24:18;;;;;;;2.10;0.90;;;;;;;;;;5100445;27;88855;-60
2023/04/14 00:26:47;;;;;;;0.87;0.70;;;;;;;;;;5108795;27;87072;-60
2023/04/14 00:29:15;;;;;;;2.37;0.97;;;;;;;;;;5101685;27;88770;-60
2023/04/14 00:31:44;;;;;;;0.40;0.40;;;;;;;;;;5099367;27;90091;-61
2023/04/14 00:34:12;;;;;;;0.60;0.40;;;;;;;;;;5097823;27;89696;-60
2023/04/14 00:36:41;;;;;;;0.67;0.60;;;;;;;;;;5110168;27;87051;-60
2023/04/14 00:39:09;;;;;;;3.30;1.03;;;;;;;;;;5102630;27;87336;-60
2023/04/14 00:41:37;;;;;;;0.70;0.63;;;;;;;;;;5106253;27;88808;-60
2023/04/14 00:44:07;;;;;;;1.50;0.80;;;;;;;;;;5106640;27;87445;-61
2023/04/14 00:46:36;;;;;;;1.23;0.90;;;;;;;;;;5096869;27;86787;-61
2023/04/14 00:49:04;;;;;;;1.93;0.67;;;;;;;;;;5101047;27;88098;-61
2023/04/14 00:51:33;;;;;;;1.33;0.93;;;;;;;;;;5098105;27;88009;-61
2023/04/14 00:54:01;;;;;;;3.87;1.20;;;;;;;;;;5094862;27;89013;-61
2023/04/14 00:56:30;;;;;;;1.77;1.37;;;;;;;;;;5092081;27;88038;-61
2023/04/14 00:58:59;;;;;;;1.17;0.93;;;;;;;;;;5099317;27;87000;-61
2023/04/14 01:01:30;;;;;;;1.37;0.80;;;;;;;;;;5098079;27;88086;-61
2023/04/14 01:03:58;;;;;;;3.37;0.70;;;;;;;;;;5089009;27;88723;-61
2023/04/14 01:06:27;;;;;;;0.70;0.57;;;;;;;;;;5102171;27;86994;-61
2023/04/14 01:08:55;;;;;;;1.07;0.83;;;;;;;;;;5102443;27;86963;-61
2023/04/14 01:11:28;;;;;;;2.10;0.77;;;;;;;;;;5119459;27;88992;-61
2023/04/14 01:13:59;;;;;;;1.67;1.10;;;;;;;;;;5104032;27;88956;-61
2023/04/14 01:16:28;;;;;;;0.67;0.67;;;;;;;;;;5086029;27;87072;-61
2023/04/14 01:18:59;;;;;;;0.97;0.77;;;;;;;;;;5105704;27;87027;-61
2023/04/14 01:21:30;;;;;;;0.97;0.80;;;;;;;;;;5088410;27;89992;-61
2023/04/14 01:24:05;;;;;;;1.10;0.70;;;;;;;;;;5095000;27;90057;-60
2023/04/14 01:26:34;;;;;;;0.70;0.70;;;;;;;;;;5088565;27;87404;-61
2023/04/14 01:29:18;;;;;;;0.90;0.80;;;;;;;;;;5086628;27;87122;-62
2023/04/14 01:31:47;;;;;;;3.53;1.13;;;;;;;;;;5096609;27;89384;-60
2023/04/14 01:34:19;;;;;;;0.60;0.60;;;;;;;;;;5105790;27;87758;-60
2023/04/14 01:36:49;;;;;;;3.60;1.20;;;;;;;;;;5084945;27;86780;-60
2023/04/14 01:39:21;;;;;;;2.37;1.17;;;;;;;;;;5085792;27;86297;-60
2023/04/14 01:41:50;;;;;;;1.20;0.93;;;;;;;;;;5092066;27;88969;-60
2023/04/14 01:44:20;;;;;;;2.03;0.80;;;;;;;;;;5089792;27;88730;-60
2023/04/14 01:46:50;;;;;;;0.90;0.53;;;;;;;;;;5099623;27;87926;-60
2023/04/14 01:49:18;;;;;;;1.53;0.80;;;;;;;;;;5097540;27;87048;-61
2023/04/14 01:51:46;;;;;;;4.17;0.70;;;;;;;;;;5101482;27;89281;-61
2023/04/14 01:54:15;;;;;;;2.50;0.70;;;;;;;;;;5097572;27;88628;-60
2023/04/14 01:56:43;;;;;;;0.73;0.67;;;;;;;;;;5096970;27;88685;-61
2023/04/14 01:59:11;;;;;;;0.87;0.87;;;;;;;;;;5088118;27;87069;-61
2023/04/14 02:01:40;;;;;;;0.57;0.57;;;;;;;;;;5095151;27;88717;-61
2023/04/14 02:04:09;;;;;;;1.87;0.70;;;;;;;;;;5093289;27;87510;-61
2023/04/14 02:06:38;;;;;;;1.20;0.50;;;;;;;;;;5088114;27;88443;-61
2023/04/14 02:09:09;;;;;;;0.70;0.67;;;;;;;;;;5100436;27;88413;-61
2023/04/14 02:11:37;;;;;;;0.50;0.50;;;;;;;;;;5098684;27;90209;-60
2023/04/14 02:14:06;;;;;;;1.00;0.90;;;;;;;;;;5084582;27;89675;-61
2023/04/14 02:16:34;;;;;;;2.00;0.60;;;;;;;;;;5092680;27;88683;-61
2023/04/14 02:19:03;;;;;;;1.03;0.80;;;;;;;;;;5099822;27;87326;-60
2023/04/14 02:21:32;;;;;;;1.57;0.63;;;;;;;;;;5099768;27;89213;-61
2023/04/14 02:24:01;;;;;;;2.20;0.80;;;;;;;;;;5101806;27;88582;-61
2023/04/14 02:26:31;;;;;;;4.03;1.07;;;;;;;;;;5103426;27;87457;-60
2023/04/14 02:29:01;;;;;;;0.47;0.47;;;;;;;;;;5099753;27;86193;-60
2023/04/14 02:31:30;;;;;;;4.43;1.23;;;;;;;;;;5095907;27;89065;-61
2023/04/14 02:33:59;;;;;;;2.57;0.93;;;;;;;;;;5084086;27;88867;-60
2023/04/14 02:36:31;;;;;;;1.20;0.73;;;;;;;;;;5085939;27;88968;-61
2023/04/14 02:39:01;;;;;;;0.30;0.30;;;;;;;;;;5091267;27;87231;-60
2023/04/14 02:41:30;;;;;;;0.70;0.70;;;;;;;;;;5102193;27;89094;-60
2023/04/14 02:44:01;;;;;;;0.50;0.50;;;;;;;;;;5097915;27;88857;-61
2023/04/14 02:46:30;;;;;;;0.60;0.60;;;;;;;;;;5091542;27;87209;-60
2023/04/14 02:48:58;;;;;;;2.30;0.83;;;;;;;;;;5095010;27;87213;-60
2023/04/14 02:51:27;;;;;;;0.60;0.60;;;;;;;;;;5105186;27;89010;-60
2023/04/14 02:53:55;;;;;;;1.13;0.57;;;;;;;;;;5102408;27;89187;-60
2023/04/14 02:56:25;;;;;;;0.43;0.43;;;;;;;;;;5093463;27;87095;-63
2023/04/14 02:58:53;;;;;;;0.87;0.70;;;;;;;;;;5098935;27;86801;-60
2023/04/14 03:01:22;;;;;;;0.73;0.63;;;;;;;;;;5091046;27;90122;-61
2023/04/14 03:03:50;;;;;;;0.83;0.77;;;;;;;;;;5089186;27;89701;-61
2023/04/14 03:06:18;;;;;;;0.70;0.60;;;;;;;;;;5085178;27;88304;-60
2023/04/14 03:08:46;;;;;;;1.23;0.73;;;;;;;;;;5084856;27;87012;-61
2023/04/14 03:11:15;;;;;;;1.77;0.80;;;;;;;;;;5093092;27;89294;-61
2023/04/14 03:13:44;;;;;;;0.57;0.57;;;;;;;;;;5085236;27;88597;-61
2023/04/14 03:16:13;;;;;;;3.97;1.27;;;;;;;;;;5083267;27;87050;-61
2023/04/14 03:18:41;;;;;;;2.97;1.10;;;;;;;;;;5085595;27;86221;-60
2023/04/14 03:21:09;;;;;;;0.53;0.40;;;;;;;;;;5102986;27;89021;-61
2023/04/14 03:23:38;;;;;;;1.43;0.97;;;;;;;;;;5095862;27;90192;-60
2023/04/14 03:26:06;;;;;;;0.80;0.70;;;;;;;;;;5088127;27;89681;-60
2023/04/14 03:28:34;;;;;;;2.07;1.03;;;;;;;;;;5103627;27;87163;-60
2023/04/14 03:31:06;;;;;;;2.13;0.77;;;;;;;;;;5089062;27;89031;-62
2023/04/14 03:33:36;;;;;;;2.33;0.93;;;;;;;;;;5098782;27;89217;-62
2023/04/14 03:36:05;;;;;;;1.03;0.83;;;;;;;;;;5086799;27;87064;-60
2023/04/14 03:38:34;;;;;;;0.50;0.50;;;;;;;;;;5094685;27;87119;-60
2023/04/14 03:41:04;;;;;;;1.40;0.50;;;;;;;;;;5082085;27;88988;-60
2023/04/14 03:43:33;;;;;;;0.60;0.60;;;;;;;;;;5085049;27;88715;-60
2023/04/14 03:46:04;;;;;;;0.73;0.67;;;;;;;;;;5087713;27;88388;-60
2023/04/14 03:48:34;;;;;;;0.83;0.80;;;;;;;;;;5089475;27;87497;-60
2023/04/14 03:51:02;;;;;;;0.40;0.40;;;;;;;;;;5097875;27;90485;-61
2023/04/14 03:53:31;;;;;;;1.73;0.70;;;;;;;;;;5100338;27;89827;-61
2023/04/14 03:55:59;;;;;;;0.50;0.50;;;;;;;;;;5100948;27;88263;-60
2023/04/14 03:58:27;;;;;;;1.97;0.90;;;;;;;;;;5093880;27;87020;-60
2023/04/14 04:00:56;;;;;;;2.07;0.83;;;;;;;;;;5101661;27;89114;-61
2023/04/14 04:03:24;;;;;;;1.27;1.07;;;;;;;;;;5103796;27;88603;-61
2023/04/14 04:05:54;;;;;;;0.47;0.47;;;;;;;;;;5091473;27;87067;-60
2023/04/14 04:08:23;;;;;;;1.37;0.70;;;;;;;;;;5092882;27;87885;-61
2023/04/14 04:10:51;;;;;;;3.30;0.70;;;;;;;;;;5095174;27;89148;-60
2023/04/14 04:13:20;;;;;;;1.07;0.70;;;;;;;;;;5103920;27;88925;-61
2023/04/14 04:15:48;;;;;;;1.00;0.90;;;;;;;;;;5091695;27;88154;-61
2023/04/14 04:18:17;;;;;;;1.30;0.50;;;;;;;;;;5102218;27;87101;-60
2023/04/14 04:20:45;;;;;;;1.53;0.63;;;;;;;;;;5085557;27;89113;-60
2023/04/14 04:23:15;;;;;;;1.43;0.97;;;;;;;;;;5092484;27;88739;-61
2023/04/14 04:25:43;;;;;;;3.93;0.70;;;;;;;;;;5084180;27;88053;-60
2023/04/14 04:28:11;;;;;;;0.83;0.70;;;;;;;;;;5094135;27;86882;-61
2023/04/14 04:30:40;;;;;;;1.20;0.73;;;;;;;;;;5084407;27;89180;-61
2023/04/14 04:33:09;;;;;;;2.07;0.63;;;;;;;;;;5090467;27;88891;-61
2023/04/14 04:35:37;;;;;;;1.23;0.80;;;;;;;;;;5082283;27;87049;-60
2023/04/14 04:38:07;;;;;;;3.17;1.10;;;;;;;;;;5089110;27;86977;-60
2023/04/14 04:40:40;;;;;;;2.23;0.53;;;;;;;;;;5088277;27;89795;-60
2023/04/14 04:43:08;;;;;;;0.87;0.77;;;;;;;;;;5089481;27;89752;-61
2023/04/14 04:45:42;;;;;;;1.47;0.77;;;;;;;;;;5097235;27;88728;-60
2023/04/14 04:48:11;;;;;;;2.00;0.73;;;;;;;;;;5089355;27;87092;-61
2023/04/14 04:50:40;;;;;;;0.80;0.50;;;;;;;;;;5100962;27;89248;-61
2023/04/14 04:53:11;;;;;;;1.83;0.70;;;;;;;;;;5095847;27;87553;-61
2023/04/14 04:55:40;;;;;;;1.33;0.80;;;;;;;;;;5090485;27;87150;-61
2023/04/14 04:58:09;;;;;;;0.80;0.80;;;;;;;;;;5096849;27;86394;-61
2023/04/14 05:00:37;;;;;;;1.00;0.90;;;;;;;;;;5090093;27;89190;-61
2023/04/14 05:03:05;;;;;;;1.10;1.00;;;;;;;;;;5094257;27;88677;-61
2023/04/14 05:05:36;;;;;;;0.83;0.80;;;;;;;;;;5091816;27;87961;-61
2023/04/14 05:08:04;;;;;;;2.10;1.07;;;;;;;;;;5098991;27;87245;-61
2023/04/14 05:10:35;;;;;;;3.03;0.90;;;;;;;;;;5094178;27;89254;-60
2023/04/14 05:13:05;;;;;;;2.27;0.73;;;;;;;;;;5092762;27;88987;-61
2023/04/14 05:15:33;;;;;;;1.03;0.70;;;;;;;;;;5098792;27;87080;-60
2023/04/14 05:18:01;;;;;;;3.47;0.80;;;;;;;;;;5089371;27;87417;-60
2023/04/14 05:20:30;;;;;;;2.77;0.80;;;;;;;;;;5083859;27;89216;-61
2023/04/14 05:23:00;;;;;;;0.83;0.80;;;;;;;;;;5094823;27;88702;-61
2023/04/14 05:25:28;;;;;;;2.20;0.90;;;;;;;;;;5097543;27;88268;-60
2023/04/14 05:27:56;;;;;;;1.30;0.90;;;;;;;;;;5084670;27;87055;-60
2023/04/14 05:30:26;;;;;;;2.77;0.77;;;;;;;;;;5104750;27;88876;-59
2023/04/14 05:32:54;;;;;;;1.00;0.57;;;;;;;;;;5123023;27;88308;-59
2023/04/14 05:35:24;;;;;;;1.40;0.70;;;;;;;;;;5102850;27;86838;-62
2023/04/14 05:37:52;;;;;;;2.20;1.17;;;;;;;;;;5101968;27;87070;-61
2023/04/14 05:40:21;;;;;;;1.70;0.97;;;;;;;;;;5083397;27;89202;-60
2023/04/14 05:42:49;;;;;;;0.77;0.70;;;;;;;;;;5091036;27;87962;-60
2023/04/14 05:45:18;;;;;;;5.13;1.00;;;;;;;;;;5100734;27;87022;-60
2023/04/14 05:47:47;;;;;;;0.97;0.87;;;;;;;;;;5089324;27;86360;-61
2023/04/14 05:50:15;;;;;;;0.93;0.80;;;;;;;;;;5093456;27;89597;-61
2023/04/14 05:52:44;;;;;;;1.07;0.70;;;;;;;;;;5082820;27;88857;-61
2023/04/14 05:55:12;;;;;;;1.30;0.90;;;;;;;;;;5082117;27;87893;-62
2023/04/14 05:57:41;;;;;;;1.83;0.67;;;;;;;;;;5082988;27;87134;-61
2023/04/14 06:00:10;;;;;;;1.13;1.00;;;;;;;;;;5096359;27;88914;-62
2023/04/14 06:02:38;;;;;;;1.03;0.87;;;;;;;;;;5102677;27;88694;-62
2023/04/14 06:05:09;;;;;;;0.80;0.80;;;;;;;;;;5098144;27;87018;-62
2023/04/14 06:07:38;;;;;;;0.70;0.70;;;;;;;;;;5095994;27;87012;-62
2023/04/14 06:10:07;;;;;;;3.20;0.83;;;;;;;;;;5101045;27;89165;-62
2023/04/14 06:12:36;;;;;;;0.53;0.53;;;;;;;;;;5102310;27;88997;-62
2023/04/14 06:15:05;;;;;;;0.70;0.60;;;;;;;;;;5095675;27;87162;-62
2023/04/14 06:17:34;;;;;;;0.77;0.70;;;;;;;;;;5083675;27;87191;-62
2023/04/14 06:20:03;;;;;;;1.33;1.23;;;;;;;;;;5081545;27;90114;-62
2023/04/14 06:22:32;;;;;;;2.93;1.47;;;;;;;;;;5093004;27;89822;-62
2023/04/14 06:25:01;;;;;;;2.13;0.90;;;;;;;;;;5100908;27;88489;-62
2023/04/14 06:27:29;;;;;;;0.50;0.50;;;;;;;;;;5093006;27;87289;-60
2023/04/14 06:29:59;;;;;;;0.97;0.60;;;;;;;;;;5085907;27;88896;-61
2023/04/14 06:32:28;;;;;;;2.33;0.60;;;;;;;;;;5084541;27;89457;-60
2023/04/14 06:34:56;;;;;;;2.00;1.03;;;;;;;;;;5087291;27;87895;-60
2023/04/14 06:37:25;;;;;;;1.63;0.57;;;;;;;;;;5099460;27;86945;-60
2023/04/14 06:39:54;;;;;;;1.00;0.70;;;;;;;;;;5093442;27;89202;-60
2023/04/14 06:42:23;;;;;;;0.90;0.87;;;;;;;;;;5082989;27;88820;-60
2023/04/14 06:44:51;;;;;;;0.47;0.47;;;;;;;;;;5103940;27;87922;-61
2023/04/14 06:47:19;;;;;;;0.47;0.40;;;;;;;;;;5101476;27;87053;-61
2023/04/14 06:49:48;;;;;;;1.47;0.80;;;;;;;;;;5101449;27;89248;-61
2023/04/14 06:52:16;;;;;;;1.00;0.90;;;;;;;;;;5087274;27;87799;-60
2023/04/14 06:54:44;;;;;;;0.53;0.50;;;;;;;;;;5095601;27;87028;-61
2023/04/14 06:57:14;;;;;;;2.10;0.90;;;;;;;;;;5084876;27;87080;-61
2023/04/14 06:59:42;;;;;;;0.60;0.60;;;;;;;;;;5100668;27;89048;-62
2023/04/14 07:02:11;;;;;;;1.30;0.87;;;;;;;;;;5098219;27;88714;-61
2023/04/14 07:04:39;;;;;;;1.70;0.60;;;;;;;;;;5096309;27;87161;-62
2023/04/14 07:07:08;;;;;;;2.33;1.20;;;;;;;;;;5091640;27;87087;-62
2023/04/14 07:09:36;;;;;;;2.23;0.70;;;;;;;;;;5090894;27;89985;-62
2023/04/14 07:12:04;;;;;;;4.73;0.87;;;;;;;;;;5086638;27;88745;-62
2023/04/14 07:14:34;;;;;;;4.03;0.93;;;;;;;;;;5089797;27;87001;-62
2023/04/14 07:17:02;;;;;;;3.43;1.20;;;;;;;;;;5094579;27;87423;-61
2023/04/14 07:19:31;;;;;;;0.67;0.67;;;;;;;;;;5098680;27;89052;-61
2023/04/14 07:21:59;;;;;;;9.13;1.37;;;;;;;;;;5092296;27;88824;-62
2023/04/14 07:24:27;;;;;;;0.70;0.70;;;;;;;;;;5083573;27;87508;-62
2023/04/14 07:26:56;;;;;;;0.97;0.63;;;;;;;;;;5084209;27;86223;-62
2023/04/14 07:29:26;;;;;;;1.33;0.50;;;;;;;;;;5086018;27;89151;-62
2023/04/14 07:31:55;;;;;;;2.80;1.00;;;;;;;;;;5090128;27;89130;-62
2023/04/14 07:34:24;;;;;;;0.60;0.60;;;;;;;;;;5095023;27;88005;-61
2023/04/14 07:36:52;;;;;;;0.93;0.60;;;;;;;;;;5101976;27;87034;-61
2023/04/14 07:39:20;;;;;;;0.83;0.80;;;;;;;;;;5084445;27;89149;-61
2023/04/14 07:41:51;;;;;;;2.87;0.60;;;;;;;;;;5097704;27;87729;-61
2023/04/14 07:44:19;;;;;;;0.60;0.60;;;;;;;;;;5097701;27;87744;-61
2023/04/14 07:46:47;;;;;;;1.00;0.80;;;;;;;;;;5095406;27;87081;-62
2023/04/14 07:49:17;;;;;;;0.73;0.73;;;;;;;;;;5099058;27;89246;-61
2023/04/14 07:51:45;;;;;;;1.27;0.50;;;;;;;;;;5102437;27;88556;-62
2023/04/14 07:54:14;;;;;;;0.50;0.50;;;;;;;;;;5103116;27;87775;-63
2023/04/14 07:56:42;;;;;;;1.10;0.40;;;;;;;;;;5093659;27;87249;-63
2023/04/14 07:59:10;;;;;;;3.97;0.67;;;;;;;;;;5099951;27;90223;-64
2023/04/14 08:01:38;;;;;;;1.60;0.83;;;;;;;;;;5092260;27;89979;-63
2023/04/14 08:04:07;;;;;;;0.67;0.40;;;;;;;;;;5105685;27;87069;-63
2023/04/14 08:06:37;;;;;;;3.03;0.70;;;;;;;;;;5105982;27;87054;-62
2023/04/14 08:09:05;;;;;;;2.33;0.73;;;;;;;;;;5095719;27;89134;-62
2023/04/14 08:11:34;;;;;;;1.77;0.60;;;;;;;;;;5094551;27;87768;-63
2023/04/14 08:14:03;;;;;;;0.60;0.60;;;;;;;;;;5104887;27;87026;-65
2023/04/14 08:16:35;;;;;;;1.83;0.70;;;;;;;;;;5097924;27;86337;-64
2023/04/14 08:19:04;;;;;;;0.60;0.40;;;;;;;;;;5093905;27;89222;-63
2023/04/14 08:21:33;;;;;;;1.97;1.10;;;;;;;;;;5095829;27;88748;-65
2023/04/14 08:24:02;;;;;;;1.70;0.47;;;;;;;;;;5095238;27;88092;-64
2023/04/14 08:26:31;;;;;;;0.70;0.60;;;;;;;;;;5085479;27;88765;-64
2023/04/14 08:28:59;;;;;;;2.53;0.70;;;;;;;;;;5080106;27;89188;-64
2023/04/14 08:31:27;;;;;;;1.07;0.50;;;;;;;;;;5100053;27;88092;-64
2023/04/14 08:33:56;;;;;;;1.13;0.57;;;;;;;;;;5121979;27;87095;-62
2023/04/14 08:36:25;;;;;;;0.90;0.67;;;;;;;;;;5117425;27;86977;-62
2023/04/14 08:38:54;;;;;;;0.97;0.80;;;;;;;;;;5100126;27;88815;-63
2023/04/14 08:41:23;;;;;;;0.93;0.80;;;;;;;;;;5110542;27;87856;-63
2023/04/14 08:43:52;;;;;;;1.97;0.57;;;;;;;;;;5107361;27;87076;-61
2023/04/14 08:46:20;;;;;;;0.50;0.50;;;;;;;;;;5115247;27;87223;-60
2023/04/14 08:48:49;;;;;;;0.30;0.30;;;;;;;;;;5088949;27;90024;-62
2023/04/14 08:51:19;;;;;;;1.40;0.63;;;;;;;;;;5100214;27;89702;-68
2023/04/14 08:53:47;;;;;;;3.33;0.70;;;;;;;;;;5104635;27;87189;-64
2023/04/14 08:56:16;;;;;;;0.40;0.40;;;;;;;;;;5096481;27;87057;-64
2023/04/14 08:58:47;;;;;;;0.70;0.33;;;;;;;;;;5113884;27;89206;-64
2023/04/14 09:01:15;;;;;;;2.80;0.47;;;;;;;;;;5112173;27;88888;-61
2023/04/14 09:03:46;;;;;;;0.77;0.73;;;;;;;;;;5109525;27;87258;-62
2023/04/14 09:06:15;;;;;;;0.53;0.40;;;;;;;;;;5089883;27;86442;-64
2023/04/14 09:08:43;;;;;;;1.53;0.60;;;;;;;;;;5084401;27;88698;-62
2023/04/14 09:11:11;;;;;;;0.93;0.60;;;;;;;;;;5093059;27;87775;-62
2023/04/14 09:13:39;;;;;;;0.63;0.50;;;;;;;;;;5087754;27;87924;-62
2023/04/14 09:16:09;;;;;;;1.50;0.73;;;;;;;;;;5109210;27;87098;-59
2023/04/14 09:18:38;;;;;;;1.77;0.67;;;;;;;;;;5122203;27;87824;-58
2023/04/14 09:21:07;;;;;;;0.43;0.43;;;;;;;;;;5101711;27;88852;-58
2023/04/14 09:23:56;;;;;;;0.30;0.30;;;;;;;;;;5097790;27;87833;-60
2023/04/14 09:26:24;;;;;;;0.57;0.57;;;;;;;;;;5102303;27;87120;-61
2023/04/14 09:28:52;;;;;;;0.40;0.40;;;;;;;;;;5089744;27;88909;-61
2023/04/14 09:31:22;;;;;;;0.40;0.40;;;;;;;;;;5103275;27;89268;-62
2023/04/14 09:33:50;;;;;;;0.50;0.40;;;;;;;;;;5121181;27;87036;-62
2023/04/14 09:36:19;;;;;;;0.40;0.40;;;;;;;;;;5108109;27;87072;-61
2023/04/14 09:38:48;;;;;;;0.60;0.50;;;;;;;;;;5095083;27;89080;-61
2023/04/14 09:41:17;;;;;;;3.67;0.73;;;;;;;;;;5093981;27;89901;-61
2023/04/14 09:43:45;;;;;;;1.30;0.63;;;;;;;;;;5098659;27;87108;-61
2023/04/14 09:46:14;;;;;;;0.60;0.60;;;;;;;;;;5085077;27;87052;-61
2023/04/14 09:48:53;;;;;;;0.67;0.67;;;;;;;;;;5098928;27;88981;-61
2023/04/14 09:51:22;;;;;;;0.30;0.30;;;;;;;;;;5098659;27;88779;-61
2023/04/14 09:53:51;;;;;;;0.43;0.43;;;;;;;;;;5093063;27;87030;-61
2023/04/14 09:56:19;;;;;;;0.33;0.33;;;;;;;;;;5090151;27;86466;-60
2023/04/14 09:58:49;;;;;;;0.50;0.50;;;;;;;;;;5098619;27;89082;-61
2023/04/14 10:01:17;;;;;;;0.53;0.50;;;;;;;;;;5104178;27;89043;-61
2023/04/14 10:03:46;;;;;;;2.93;0.70;;;;;;;;;;5100970;27;87903;-61
2023/04/14 10:06:17;;;;;;;1.17;1.00;;;;;;;;;;5102467;27;87299;-61
2023/04/14 10:08:47;;;;;;;1.93;0.70;;;;;;;;;;5102314;27;89089;-61
2023/04/14 10:11:16;;;;;;;0.50;0.40;;;;;;;;;;5125288;27;88884;-61
2023/04/14 10:13:45;;;;;;;4.40;0.90;;;;;;;;;;5122834;27;87266;-61
2023/04/14 10:16:13;;;;;;;1.10;0.77;;;;;;;;;;5117191;27;87821;-61
2023/04/14 10:18:41;;;;;;;1.13;0.77;;;;;;;;;;5080963;27;88986;-61
2023/04/14 10:21:10;;;;;;;0.73;0.73;;;;;;;;;;5089397;27;88796;-61
2023/04/14 10:23:40;;;;;;;1.80;0.40;;;;;;;;;;5096543;27;87421;-61
2023/04/14 10:26:08;;;;;;;1.13;0.60;;;;;;;;;;5087364;27;87698;-61
2023/04/14 10:28:36;;;;;;;2.63;0.50;;;;;;;;;;5103639;27;89887;-61
2023/04/14 10:31:05;;;;;;;0.60;0.57;;;;;;;;;;5102555;27;89786;-61
2023/04/14 10:33:35;;;;;;;0.47;0.47;;;;;;;;;;5095067;27;87010;-61
2023/04/14 10:36:03;;;;;;;2.30;0.77;;;;;;;;;;5084346;27;86988;-61
2023/04/14 10:38:41;;;;;;;0.50;0.30;;;;;;;;;;5086342;27;88070;-61
2023/04/14 10:41:09;;;;;;;0.30;0.30;;;;;;;;;;5105492;27;88858;-61
2023/04/14 10:43:38;;;;;;;1.00;0.60;;;;;;;;;;5104359;27;87054;-61
2023/04/14 10:46:08;;;;;;;3.00;0.40;;;;;;;;;;5084056;27;86399;-63
2023/04/14 10:48:37;;;;;;;0.30;0.30;;;;;;;;;;5084481;27;88027;-61
2023/04/14 10:51:06;;;;;;;1.07;0.63;;;;;;;;;;5083965;27;89275;-61
2023/04/14 10:53:38;;;;;;;0.30;0.30;;;;;;;;;;5084046;27;88067;-61
2023/04/14 10:56:08;;;;;;;0.30;0.30;;;;;;;;;;5083828;27;87618;-61
2023/04/14 10:58:36;;;;;;;0.93;0.50;;;;;;;;;;5084668;27;89183;-61
2023/04/14 11:01:24;;;;;;;0.33;0.30;;;;;;;;;;5082769;27;88690;-60
2023/04/14 11:03:53;;;;;;;1.17;0.70;;;;;;;;;;5100872;27;87042;-61
2023/04/14 11:06:42;;;;;;;0.40;0.40;;;;;;;;;;5093375;27;87085;-61
2023/04/14 11:09:22;;;;;;;1.33;0.40;;;;;;;;;;5099009;27;88866;-61
2023/04/14 11:11:51;;;;;;;0.40;0.40;;;;;;;;;;5102351;27;88549;-61
2023/04/14 11:14:25;;;;;;;0.23;0.23;;;;;;;;;;5083892;27;87034;-61
2023/04/14 11:16:58;;;;;;;0.40;0.40;;;;;;;;;;5083137;27;87107;-61
2023/04/14 11:19:31;;;;;;;0.30;0.30;;;;;;;;;;5083175;27;90077;-61
2023/04/14 11:22:00;;;;;;;0.20;0.20;;;;;;;;;;5082508;27;89899;-61
2023/04/14 11:24:28;;;;;;;3.77;0.40;;;;;;;;;;5083408;27;87040;-61
2023/04/14 11:26:58;;;;;;;0.53;0.40;;;;;;;;;;5084031;27;87006;-61
2023/04/14 11:29:27;;;;;;;3.07;0.40;;;;;;;;;;5083961;27;89124;-61
2023/04/14 11:32:02;;;;;;;1.80;0.60;;;;;;;;;;5082982;27;88715;-61
2023/04/14 11:34:31;;;;;;;2.30;0.60;;;;;;;;;;5104372;27;87067;-61
2023/04/14 11:37:01;;;;;;;0.73;0.73;;;;;;;;;;5103236;27;86305;-61
2023/04/14 11:39:30;;;;;;;0.40;0.40;;;;;;;;;;5103925;27;88837;-61
2023/04/14 11:42:00;;;;;;;1.07;0.67;;;;;;;;;;5101691;27;88489;-61
2023/04/14 11:44:29;;;;;;;0.40;0.40;;;;;;;;;;5103368;27;89092;-61
2023/04/14 11:46:57;;;;;;;2.20;0.60;;;;;;;;;;5103583;27;87019;-61
2023/04/14 11:49:35;;;;;;;0.60;0.40;;;;;;;;;;5103571;27;89158;-61
2023/04/14 11:52:09;;;;;;;1.07;0.60;;;;;;;;;;5102368;27;88930;-61
2023/04/14 11:54:38;;;;;;;0.60;0.47;;;;;;;;;;5104064;27;87000;-61
2023/04/14 11:57:11;;;;;;;1.00;0.50;;;;;;;;;;5104202;27;86976;-61
2023/04/14 11:59:43;;;;;;;5.60;0.57;;;;;;;;;;5103980;27;88921;-60
2023/04/14 12:02:16;;;;;;;0.50;0.33;;;;;;;;;;5104309;27;87629;-61
2023/04/14 12:04:45;;;;;;;0.30;0.30;;;;;;;;;;5101920;27;87836;-61
2023/04/14 12:07:15;;;;;;;1.80;0.50;;;;;;;;;;5101750;27;87198;-61
2023/04/14 12:09:44;;;;;;;0.30;0.30;;;;;;;;;;5103386;27;90049;-61
2023/04/14 12:12:14;;;;;;;0.50;0.50;;;;;;;;;;5101820;27;88704;-60
2023/04/14 12:14:44;;;;;;;0.57;0.57;;;;;;;;;;5103861;27;87105;-61
2023/04/14 12:17:12;;;;;;;0.50;0.50;;;;;;;;;;5103652;27;86944;-61
2023/04/14 12:19:41;;;;;;;0.50;0.50;;;;;;;;;;5101604;27;89494;-61
2023/04/14 12:22:09;;;;;;;0.30;0.30;;;;;;;;;;5103809;27;88755;-61
2023/04/14 12:24:37;;;;;;;0.87;0.30;;;;;;;;;;5104082;27;87475;-61
2023/04/14 12:27:06;;;;;;;0.43;0.43;;;;;;;;;;5101525;27;86311;-61
2023/04/14 12:29:35;;;;;;;0.77;0.50;;;;;;;;;;5101465;27;89139;-61
2023/04/14 12:32:04;;;;;;;0.63;0.50;;;;;;;;;;5103447;27;88899;-61
2023/04/14 12:34:32;;;;;;;0.30;0.30;;;;;;;;;;5102804;27;87811;-61
2023/04/14 12:37:01;;;;;;;0.67;0.57;;;;;;;;;;5103637;27;86898;-61
2023/04/14 12:39:30;;;;;;;0.30;0.30;;;;;;;;;;5097886;27;89174;-62
2023/04/14 12:41:59;;;;;;;0.30;0.30;;;;;;;;;;5082849;27;89177;-62
2023/04/14 12:44:28;;;;;;;0.60;0.60;;;;;;;;;;5083115;27;86934;-61
2023/04/14 12:46:57;;;;;;;0.40;0.40;;;;;;;;;;5082523;27;87016;-61
2023/04/14 12:49:32;;;;;;;0.30;0.30;;;;;;;;;;5082583;27;89530;-61
2023/04/14 12:52:00;;;;;;;0.40;0.40;;;;;;;;;;5082094;27;88934;-61
2023/04/14 12:54:44;;;;;;;0.70;0.50;;;;;;;;;;5082566;27;87040;-61
2023/04/14 12:57:12;;;;;;;1.77;0.50;;;;;;;;;;5081400;27;87582;-61
2023/04/14 12:59:41;;;;;;;0.40;0.40;;;;;;;;;;5091284;27;90024;-61
2023/04/14 13:02:11;;;;;;;0.30;0.30;;;;;;;;;;5101471;27;89893;-61
2023/04/14 13:04:40;;;;;;;2.70;1.00;;;;;;;;;;5100918;27;86813;-61
2023/04/14 13:07:08;;;;;;;1.63;0.50;;;;;;;;;;5106394;27;87128;-61
2023/04/14 13:09:36;;;;;;;1.20;0.60;;;;;;;;;;5106836;27;89024;-61
2023/04/14 13:12:04;;;;;;;2.00;0.50;;;;;;;;;;5106228;27;88854;-61
2023/04/14 13:14:33;;;;;;;1.80;0.43;;;;;;;;;;5105097;27;87142;-61
2023/04/14 13:17:01;;;;;;;0.20;0.20;;;;;;;;;;5106726;27;86358;-61
2023/04/14 13:19:31;;;;;;;0.37;0.37;;;;;;;;;;5106196;27;89189;-61
2023/04/14 13:21:59;;;;;;;1.07;0.40;;;;;;;;;;5105603;27;88970;-61
2023/04/14 13:24:27;;;;;;;1.20;0.33;;;;;;;;;;5084505;27;88117;-61
2023/04/14 13:26:55;;;;;;;0.30;0.30;;;;;;;;;;5085709;27;87032;-62
2023/04/14 13:29:24;;;;;;;0.63;0.63;;;;;;;;;;5085815;27;89157;-61
2023/04/14 13:31:52;;;;;;;0.97;0.67;;;;;;;;;;5085543;27;88605;-61
2023/04/14 13:34:20;;;;;;;0.60;0.60;;;;;;;;;;5102622;27;86973;-61
2023/04/14 13:36:50;;;;;;;0.80;0.70;;;;;;;;;;5105473;27;88213;-61
2023/04/14 13:39:19;;;;;;;0.50;0.50;;;;;;;;;;5103724;27;89165;-60
2023/04/14 13:41:47;;;;;;;0.50;0.43;;;;;;;;;;5106490;27;89132;-61
2023/04/14 13:44:17;;;;;;;0.53;0.53;;;;;;;;;;5106424;27;87018;-61
2023/04/14 13:46:45;;;;;;;0.73;0.50;;;;;;;;;;5104202;27;87108;-61
2023/04/14 13:49:14;;;;;;;0.50;0.50;;;;;;;;;;5105452;27;90199;-61
2023/04/14 13:51:42;;;;;;;0.30;0.30;;;;;;;;;;5105878;27;89852;-60
2023/04/14 13:54:12;;;;;;;0.60;0.60;;;;;;;;;;5106379;27;86912;-61
2023/04/14 13:56:40;;;;;;;1.87;0.77;;;;;;;;;;5104414;27;87149;-61
2023/04/14 13:59:08;;;;;;;0.43;0.43;;;;;;;;;;5105942;27;89104;-61
2023/04/14 14:01:36;;;;;;;0.40;0.40;;;;;;;;;;5106310;27;88781;-61
2023/04/14 14:04:05;;;;;;;0.43;0.43;;;;;;;;;;5102051;27;87055;-61
2023/04/14 14:06:33;;;;;;;1.73;0.60;;;;;;;;;;5106215;27;86283;-61
2023/04/14 14:09:03;;;;;;;0.77;0.67;;;;;;;;;;5105358;27;89098;-61
2023/04/14 14:11:35;;;;;;;0.47;0.47;;;;;;;;;;5105284;27;87616;-61
2023/04/14 14:14:03;;;;;;;0.40;0.40;;;;;;;;;;5103138;27;88004;-61
2023/04/14 14:16:32;;;;;;;0.33;0.33;;;;;;;;;;5104594;27;87689;-61
2023/04/14 14:19:07;;;;;;;1.10;0.87;;;;;;;;;;5100602;27;87960;-61
2023/04/14 14:21:35;;;;;;;1.40;0.70;;;;;;;;;;5084619;27;88812;-61
2023/04/14 14:24:03;;;;;;;2.90;0.57;;;;;;;;;;5084645;27;86964;-61
2023/04/14 14:26:32;;;;;;;0.70;0.70;;;;;;;;;;5091076;27;86957;-60
2023/04/14 14:29:02;;;;;;;1.60;0.50;;;;;;;;;;5105430;27;87831;-61
2023/04/14 14:31:30;;;;;;;0.60;0.30;;;;;;;;;;5105845;27;87650;-61
2023/04/14 14:33:59;;;;;;;0.60;0.60;;;;;;;;;;5105370;27;87061;-61
2023/04/14 14:36:28;;;;;;;0.53;0.50;;;;;;;;;;5102850;27;87185;-62
2023/04/14 14:38:56;;;;;;;0.40;0.40;;;;;;;;;;5104109;27;90161;-61
2023/04/14 14:41:24;;;;;;;3.50;0.57;;;;;;;;;;5104618;27;89841;-61
2023/04/14 14:43:52;;;;;;;1.00;0.80;;;;;;;;;;5093097;27;87115;-61
2023/04/14 14:46:22;;;;;;;0.43;0.37;;;;;;;;;;5085110;27;86983;-61
2023/04/14 14:48:51;;;;;;;0.73;0.53;;;;;;;;;;5084306;27;88025;-61
2023/04/14 14:51:19;;;;;;;0.50;0.50;;;;;;;;;;5086250;27;88825;-61
2023/04/14 14:53:47;;;;;;;1.90;0.60;;;;;;;;;;5094445;27;86984;-61
2023/04/14 14:56:17;;;;;;;0.40;0.40;;;;;;;;;;5084816;27;86058;-61